createdAt,value
2023-08-18T00:01:05.589Z,70.83
2023-08-18T00:03:37.052Z,71.17
2023-08-18T00:06:06.598Z,71.39
2023-08-18T00:08:34.695Z,71.68
2023-08-18T00:11:02.693Z,71.84
2023-08-18T00:13:30.747Z,71.93
2023-08-18T00:15:58.748Z,72.15
2023-08-18T00:18:27.177Z,72.19
2023-08-18T00:20:55.204Z,72.51
2023-08-18T00:23:23.281Z,72.71
2023-08-18T00:25:51.417Z,73.08
2023-08-18T00:28:19.840Z,73.02
2023-08-18T00:30:47.901Z,72.94
2023-08-18T00:33:16.018Z,73.08
2023-08-18T00:35:44.179Z,73.26
2023-08-18T00:38:12.361Z,73.86
2023-08-18T00:40:40.506Z,74.38
2023-08-18T00:43:08.577Z,74.73
2023-08-18T00:45:36.946Z,75.58
2023-08-18T00:48:05.676Z,76.43
2023-08-18T00:50:33.769Z,76.95
2023-08-18T00:53:01.894Z,77.36
2023-08-18T00:55:30.291Z,77.76
2023-08-18T00:57:58.691Z,78.43
2023-08-18T01:00:26.865Z,78.79
2023-08-18T01:02:54.867Z,79.26
2023-08-18T01:05:22.992Z,79.51
2023-08-18T01:07:51.102Z,79.73
2023-08-18T01:10:21.424Z,79.82
2023-08-18T01:12:49.581Z,80.26
2023-08-18T01:15:19.054Z,80.52
2023-08-18T01:17:54.741Z,80.66
2023-08-18T01:20:23.195Z,81.07
2023-08-18T01:22:53.403Z,81.24
2023-08-18T01:25:21.692Z,81.57
2023-08-18T01:27:49.741Z,81.77
2023-08-18T01:30:17.954Z,82.19
2023-08-18T01:33:03.210Z,82.45
2023-08-18T01:35:31.870Z,82.44
2023-08-18T01:38:00.316Z,82.75
2023-08-18T01:40:29.233Z,82.79
2023-08-18T01:42:59.421Z,82.70
2023-08-18T01:45:27.591Z,82.53
2023-08-18T01:47:56.555Z,82.75
2023-08-18T01:50:24.627Z,82.84
2023-08-18T01:52:52.786Z,82.97
2023-08-18T01:55:20.859Z,83.17
2023-08-18T01:57:48.922Z,83.45
2023-08-18T02:00:20.978Z,83.59
2023-08-18T02:02:50.006Z,83.84
2023-08-18T02:05:18.227Z,83.98
2023-08-18T02:07:46.279Z,84.06
2023-08-18T02:10:14.346Z,84.34
2023-08-18T02:12:42.464Z,84.31
2023-08-18T02:15:10.771Z,84.59
2023-08-18T02:17:38.824Z,84.71
2023-08-18T02:20:10.073Z,84.99
2023-08-18T02:22:38.376Z,84.71
2023-08-18T02:25:06.636Z,84.73
2023-08-18T02:27:34.688Z,84.97
2023-08-18T02:30:02.703Z,85.29
2023-08-18T02:32:30.870Z,85.20
2023-08-18T02:34:59.160Z,85.30
2023-08-18T02:37:27.782Z,85.32
2023-08-18T02:39:56.530Z,85.58
2023-08-18T02:42:25.265Z,85.70
2023-08-18T02:44:53.343Z,86.00
2023-08-18T02:47:21.400Z,86.03
2023-08-18T02:49:51.545Z,86.12
2023-08-18T02:52:19.615Z,86.24
2023-08-18T02:54:47.596Z,86.34
2023-08-18T02:57:15.703Z,86.29
2023-08-18T02:59:43.765Z,86.15
2023-08-18T03:02:12.569Z,86.33
2023-08-18T03:04:40.607Z,86.40
2023-08-18T03:07:08.928Z,86.41
2023-08-18T03:09:37.425Z,86.39
2023-08-18T03:12:05.508Z,86.50
2023-08-18T03:14:33.851Z,86.51
2023-08-18T03:17:01.942Z,86.56
2023-08-18T03:19:30.389Z,86.75
2023-08-18T03:21:58.637Z,86.69
2023-08-18T03:24:27.015Z,86.88
2023-08-18T03:26:56.089Z,87.01
2023-08-18T03:29:24.143Z,87.31
2023-08-18T03:31:52.179Z,87.31
2023-08-18T03:34:20.987Z,87.32
2023-08-18T03:36:48.995Z,87.31
2023-08-18T03:39:17.575Z,87.30
2023-08-18T03:41:45.583Z,87.50
2023-08-18T03:44:14.223Z,87.57
2023-08-18T03:46:43.244Z,87.33
2023-08-18T03:49:11.228Z,87.63
2023-08-18T03:51:39.202Z,87.75
2023-08-18T03:54:07.273Z,87.68
2023-08-18T03:56:36.139Z,87.77
2023-08-18T03:59:04.817Z,87.78
2023-08-18T04:01:33.767Z,87.82
2023-08-18T04:04:01.874Z,87.90
2023-08-18T04:06:29.973Z,87.95
2023-08-18T04:09:08.122Z,88.11
2023-08-18T04:11:36.811Z,88.13
2023-08-18T04:14:05.016Z,88.25
2023-08-18T04:16:33.048Z,88.30
2023-08-18T04:19:02.091Z,88.45
2023-08-18T04:21:31.113Z,88.38
2023-08-18T04:23:59.291Z,88.37
2023-08-18T04:26:30.540Z,88.41
2023-08-18T04:28:58.756Z,88.34
2023-08-18T04:31:28.378Z,88.29
2023-08-18T04:33:59.861Z,88.35
2023-08-18T04:36:28.802Z,88.26
2023-08-18T04:38:57.552Z,88.41
2023-08-18T04:41:29.063Z,88.55
2023-08-18T04:43:57.326Z,88.68
2023-08-18T04:46:27.374Z,88.71
2023-08-18T04:48:59.819Z,88.81
2023-08-18T04:51:28.619Z,88.88
2023-08-18T04:53:56.926Z,88.74
2023-08-18T04:56:25.397Z,88.92
2023-08-18T04:58:53.451Z,88.86
2023-08-18T05:01:22.433Z,88.88
2023-08-18T05:03:50.839Z,89.15
2023-08-18T05:06:19.064Z,89.30
2023-08-18T05:08:47.510Z,89.32
2023-08-18T05:11:16.247Z,89.19
2023-08-18T05:13:44.598Z,89.24
2023-08-18T05:16:12.879Z,89.58
2023-08-18T05:18:41.854Z,89.63
2023-08-18T05:21:09.913Z,89.31
2023-08-18T05:23:38.187Z,89.37
2023-08-18T05:26:06.332Z,89.54
2023-08-18T05:28:34.524Z,89.69
2023-08-18T05:31:03.023Z,89.77
2023-08-18T05:33:31.205Z,89.76
2023-08-18T05:36:00.148Z,89.73
2023-08-18T05:38:28.613Z,89.75
2023-08-18T05:41:11.870Z,89.94
2023-08-18T05:43:43.658Z,89.94
2023-08-18T05:46:12.634Z,89.84
2023-08-18T05:48:41.063Z,89.98
2023-08-18T05:51:09.161Z,90.12
2023-08-18T05:53:38.165Z,89.84
2023-08-18T05:56:06.399Z,89.98
2023-08-18T05:58:34.463Z,90.05
2023-08-18T06:01:02.595Z,89.95
2023-08-18T06:03:31.695Z,89.92
2023-08-18T06:06:02.251Z,89.85
2023-08-18T06:08:32.600Z,90.01
2023-08-18T06:11:00.982Z,90.20
2023-08-18T06:13:29.088Z,90.35
2023-08-18T06:15:57.203Z,90.43
2023-08-18T06:18:25.222Z,90.21
2023-08-18T06:20:53.312Z,90.12
2023-08-18T06:23:21.311Z,89.92
2023-08-18T06:25:49.361Z,89.69
2023-08-18T06:28:17.389Z,89.74
2023-08-18T06:30:45.575Z,89.81
2023-08-18T06:33:13.668Z,89.68
2023-08-18T06:35:41.719Z,89.86
2023-08-18T06:38:09.709Z,89.73
2023-08-18T06:40:37.705Z,89.59
2023-08-18T06:43:05.746Z,89.08
2023-08-18T06:45:33.746Z,88.88
2023-08-18T06:48:01.826Z,88.86
2023-08-18T06:50:30.407Z,89.32
2023-08-18T06:52:58.384Z,89.13
2023-08-18T06:55:29.060Z,88.08
2023-08-18T06:58:02.203Z,87.13
2023-08-18T07:00:30.182Z,86.97
2023-08-18T07:02:58.793Z,86.37
2023-08-18T07:05:27.423Z,86.03
2023-08-18T07:07:55.469Z,85.11
2023-08-18T07:10:23.537Z,84.12
2023-08-18T07:12:51.559Z,83.65
2023-08-18T07:15:19.591Z,83.56
2023-08-18T07:17:47.623Z,82.53
2023-08-18T07:20:15.784Z,81.61
2023-08-18T07:22:44.148Z,80.86
2023-08-18T07:25:12.237Z,80.13
2023-08-18T07:27:40.307Z,79.44
2023-08-18T07:30:10.031Z,79.08
2023-08-18T07:32:41.447Z,78.60
2023-08-18T07:35:10.657Z,77.41
2023-08-18T07:37:54.901Z,76.91
2023-08-18T07:40:24.807Z,76.76
2023-08-18T07:42:53.014Z,76.62
2023-08-18T07:45:21.109Z,76.63
2023-08-18T07:47:49.267Z,76.54
2023-08-18T07:50:17.418Z,76.37
2023-08-18T07:52:45.522Z,76.47
2023-08-18T07:55:13.591Z,76.43
2023-08-18T07:57:41.641Z,76.10
2023-08-18T08:00:19.666Z,75.60
2023-08-18T08:02:47.976Z,75.58
2023-08-18T08:05:19.204Z,75.46
2023-08-18T08:07:47.754Z,75.19
2023-08-18T08:10:16.516Z,74.39
2023-08-18T08:12:45.307Z,73.96
2023-08-18T08:15:14.394Z,73.84
2023-08-18T08:17:42.676Z,73.51
2023-08-18T08:20:19.615Z,72.98
2023-08-18T08:22:48.578Z,72.58
2023-08-18T08:25:16.747Z,72.47
2023-08-18T08:27:44.792Z,72.67
2023-08-18T08:30:18.996Z,72.15
2023-08-18T08:32:54.556Z,72.07
2023-08-18T08:35:28.572Z,71.38
2023-08-18T08:37:57.998Z,71.39
2023-08-18T08:40:26.411Z,71.55
2023-08-18T08:45:32.132Z,71.12
2023-08-18T08:48:01.123Z,70.10
2023-08-18T08:50:31.886Z,70.26
2023-08-18T08:53:01.486Z,69.80
2023-08-18T08:55:32.504Z,69.91
2023-08-18T08:58:00.710Z,69.58
2023-08-18T09:00:28.905Z,69.22
2023-08-18T09:03:01.240Z,69.25
2023-08-18T09:05:31.332Z,68.90
2023-08-18T09:07:59.541Z,68.46
2023-08-18T09:10:27.848Z,68.76
2023-08-18T09:12:56.343Z,68.61
2023-08-18T09:15:24.795Z,68.41
2023-08-18T09:17:53.368Z,68.17
2023-08-18T09:20:22.659Z,68.07
2023-08-18T09:22:55.178Z,67.96
2023-08-18T09:25:27.185Z,67.32
2023-08-18T09:27:55.719Z,66.69
2023-08-18T09:30:25.416Z,66.58
2023-08-18T09:32:54.105Z,66.08
2023-08-18T09:35:22.356Z,65.39
2023-08-18T09:37:57.452Z,64.84
2023-08-18T09:40:25.810Z,64.62
2023-08-18T09:42:54.060Z,64.37
2023-08-18T09:45:25.576Z,64.22
2023-08-18T09:47:57.227Z,64.09
2023-08-18T09:50:26.414Z,63.50
2023-08-18T09:52:55.582Z,63.23
2023-08-18T09:55:30.302Z,62.89
2023-08-18T09:58:04.389Z,62.31
2023-08-18T10:00:32.527Z,60.97
2023-08-18T10:03:01.026Z,61.05
2023-08-18T10:05:32.494Z,59.39
2023-08-18T10:08:00.772Z,58.57
2023-08-18T10:10:29.040Z,59.26
2023-08-18T10:12:57.140Z,58.77
2023-08-18T10:15:26.143Z,57.94
2023-08-18T10:17:54.312Z,58.12
2023-08-18T10:20:22.510Z,57.95
2023-08-18T10:22:50.512Z,57.15
2023-08-18T10:25:26.148Z,56.70
2023-08-18T10:27:54.191Z,55.64
2023-08-18T10:30:25.690Z,56.56
2023-08-18T10:32:55.639Z,55.91
2023-08-18T10:35:24.579Z,55.93
2023-08-18T10:38:04.153Z,55.80
2023-08-18T10:40:32.722Z,55.41
2023-08-18T10:43:10.342Z,54.87
2023-08-18T10:45:39.398Z,54.37
2023-08-18T10:48:07.636Z,54.06
2023-08-18T10:50:36.253Z,52.98
2023-08-18T10:53:06.668Z,52.14
2023-08-18T10:55:35.186Z,51.47
2023-08-18T10:58:03.874Z,52.11
2023-08-18T11:00:35.528Z,52.07
2023-08-18T11:03:04.692Z,51.40
2023-08-18T11:05:33.085Z,50.87
2023-08-18T11:08:01.583Z,50.77
2023-08-18T11:10:30.021Z,50.85
2023-08-18T11:12:59.771Z,51.63
2023-08-18T11:15:28.421Z,51.13
2023-08-18T11:17:57.311Z,51.52
2023-08-18T11:20:25.677Z,51.42
2023-08-18T11:22:53.854Z,51.27
2023-08-18T11:25:26.478Z,50.58
2023-08-18T11:27:55.320Z,50.50
2023-08-18T11:30:23.575Z,50.79
2023-08-18T11:32:54.785Z,49.95
2023-08-18T11:35:26.128Z,50.09
2023-08-18T11:37:55.824Z,49.74
2023-08-18T11:40:24.094Z,49.24
2023-08-18T11:42:52.771Z,49.40
2023-08-18T11:45:21.529Z,48.66
2023-08-18T11:47:58.061Z,48.10
2023-08-18T11:50:33.284Z,47.59
2023-08-18T11:53:01.291Z,47.50
2023-08-18T11:55:29.866Z,46.74
2023-08-18T11:57:58.017Z,46.65
2023-08-18T12:00:32.391Z,45.64
2023-08-18T12:03:00.522Z,45.85
2023-08-18T12:05:29.241Z,46.01
2023-08-18T12:07:58.700Z,45.91
2023-08-18T12:10:27.043Z,45.16
2023-08-18T12:12:55.525Z,44.75
2023-08-18T12:15:24.960Z,44.80
2023-08-18T12:17:56.047Z,43.63
2023-08-18T12:20:27.059Z,44.34
2023-08-18T12:22:55.229Z,43.52
2023-08-18T12:25:24.156Z,43.96
2023-08-18T12:27:53.043Z,43.23
2023-08-18T12:30:21.484Z,43.47
2023-08-18T12:33:03.103Z,43.23
2023-08-18T12:35:31.370Z,42.96
2023-08-18T12:38:05.055Z,42.41
2023-08-18T12:40:38.628Z,41.12
2023-08-18T12:43:10.209Z,41.57
2023-08-18T12:45:38.852Z,40.76
2023-08-18T12:48:17.466Z,40.42
2023-08-18T12:51:19.246Z,39.95
2023-08-18T12:53:47.704Z,39.12
2023-08-18T12:56:16.089Z,39.70
2023-08-18T12:58:47.244Z,39.90
2023-08-18T13:01:18.483Z,39.08
2023-08-18T13:03:56.562Z,39.56
2023-08-18T13:06:24.696Z,40.27
2023-08-18T13:08:53.665Z,39.61
2023-08-18T13:11:37.527Z,39.69
2023-08-18T13:14:25.910Z,39.67
2023-08-18T13:16:59.663Z,39.11
2023-08-18T13:19:57.362Z,38.47
2023-08-18T13:22:26.371Z,39.25
2023-08-18T13:24:55.691Z,38.68
2023-08-18T13:27:25.767Z,39.19
2023-08-18T13:30:17.661Z,38.80
2023-08-18T13:32:55.318Z,39.02
2023-08-18T13:35:23.988Z,39.10
2023-08-18T13:38:00.201Z,38.51
2023-08-18T13:40:37.305Z,38.32
2023-08-18T13:43:05.867Z,39.35
2023-08-18T13:45:33.991Z,39.53
2023-08-18T13:48:03.054Z,40.09
2023-08-18T13:50:31.300Z,40.30
2023-08-18T13:52:59.394Z,40.11
2023-08-18T13:55:27.559Z,40.37
2023-08-18T13:57:55.810Z,41.25
2023-08-18T14:00:26.197Z,41.84
2023-08-18T14:02:54.876Z,41.91
2023-08-18T14:05:25.114Z,42.41
2023-08-18T14:07:53.142Z,44.01
2023-08-18T14:10:24.160Z,45.41
2023-08-18T14:12:52.157Z,47.05
2023-08-18T14:15:20.433Z,48.49
2023-08-18T14:17:49.196Z,49.70
2023-08-18T14:20:18.577Z,50.86
2023-08-18T14:22:47.388Z,51.47
2023-08-18T14:25:15.567Z,52.36
2023-08-18T14:27:43.910Z,53.28
2023-08-18T14:30:12.077Z,53.90
2023-08-18T14:32:40.032Z,54.52
2023-08-18T14:35:09.383Z,55.21
2023-08-18T14:37:37.699Z,55.66
2023-08-18T14:40:08.563Z,56.28
2023-08-18T14:42:37.048Z,56.25
2023-08-18T14:45:05.591Z,56.82
2023-08-18T14:47:35.426Z,57.18
2023-08-18T14:50:06.127Z,57.51
2023-08-18T14:52:34.110Z,57.73
2023-08-18T14:55:02.395Z,57.87
2023-08-18T14:57:30.434Z,58.33
2023-08-18T14:59:58.702Z,58.58
2023-08-18T15:02:26.764Z,58.60
2023-08-18T15:04:55.339Z,59.10
2023-08-18T15:07:24.792Z,59.29
2023-08-18T15:09:52.764Z,58.98
2023-08-18T15:12:20.776Z,58.39
2023-08-18T15:14:48.849Z,58.43
2023-08-18T15:17:16.793Z,58.34
2023-08-18T15:19:44.749Z,58.19
2023-08-18T15:22:12.736Z,58.14
2023-08-18T15:24:40.776Z,58.15
2023-08-18T15:27:08.790Z,58.20
2023-08-18T15:29:36.840Z,58.45
2023-08-18T15:32:04.935Z,58.41
2023-08-18T15:34:32.932Z,58.80
2023-08-18T15:37:01.638Z,58.76
2023-08-18T15:39:29.623Z,59.14
2023-08-18T15:41:57.650Z,59.00
2023-08-18T15:44:26.115Z,59.09
2023-08-18T15:46:54.089Z,59.19
2023-08-18T15:49:22.191Z,59.27
2023-08-18T15:51:50.103Z,59.63
2023-08-18T15:54:18.110Z,59.84
2023-08-18T15:56:46.059Z,59.61
2023-08-18T15:59:14.099Z,59.87
2023-08-18T16:01:42.193Z,59.96
2023-08-18T16:04:10.505Z,59.93
2023-08-18T16:06:40.344Z,60.28
2023-08-18T16:09:08.426Z,60.35
2023-08-18T16:11:36.403Z,60.53
2023-08-18T16:14:17.875Z,60.47
2023-08-18T16:16:52.820Z,60.81
2023-08-18T16:19:20.815Z,60.84
2023-08-18T16:21:48.917Z,60.73
2023-08-18T16:24:16.925Z,61.00
2023-08-18T16:26:44.847Z,61.00
2023-08-18T16:29:12.808Z,61.27
2023-08-18T16:31:40.811Z,61.13
2023-08-18T16:34:09.075Z,61.40
2023-08-18T16:36:37.146Z,61.32
2023-08-18T16:39:05.242Z,61.79
2023-08-18T16:41:33.416Z,61.71
2023-08-18T16:44:01.352Z,62.01
2023-08-18T16:46:29.709Z,62.01
2023-08-18T16:48:58.101Z,62.12
2023-08-18T16:51:26.071Z,62.22
2023-08-18T16:53:54.218Z,62.62
2023-08-18T16:56:22.234Z,62.52
2023-08-18T16:58:50.334Z,62.32
2023-08-18T17:01:18.565Z,62.70
2023-08-18T17:03:47.239Z,63.08
2023-08-18T17:06:15.533Z,63.29
2023-08-18T17:08:43.511Z,63.21
2023-08-18T17:11:11.528Z,63.31
2023-08-18T17:13:39.505Z,63.21
2023-08-18T17:16:07.608Z,63.21
2023-08-18T17:18:35.834Z,63.64
2023-08-18T17:21:03.851Z,63.73
2023-08-18T17:23:31.854Z,63.77
2023-08-18T17:25:59.934Z,63.97
2023-08-18T17:28:27.902Z,64.21
2023-08-18T17:30:55.993Z,64.58
2023-08-18T17:33:24.151Z,64.81
2023-08-18T17:35:52.203Z,65.08
2023-08-18T17:38:20.187Z,65.18
2023-08-18T17:40:48.230Z,65.22
2023-08-18T17:43:16.146Z,65.53
2023-08-18T17:45:44.159Z,65.66
2023-08-18T17:48:12.220Z,65.94
2023-08-18T17:50:40.200Z,65.95
2023-08-18T17:53:08.349Z,66.03
2023-08-18T17:55:36.577Z,66.14
2023-08-18T17:58:05.934Z,66.41
2023-08-18T18:00:37.015Z,66.41
2023-08-18T18:03:05.250Z,66.80
2023-08-18T18:05:33.677Z,66.85
2023-08-18T18:08:04.416Z,66.86
2023-08-18T18:10:33.324Z,67.01
2023-08-18T18:13:03.661Z,67.18
2023-08-18T18:15:31.662Z,67.07
2023-08-18T18:17:59.855Z,67.53
2023-08-18T18:20:27.896Z,67.89
2023-08-18T18:22:55.925Z,67.94
2023-08-18T18:25:23.888Z,67.91
2023-08-18T18:27:52.672Z,67.94
2023-08-18T18:30:20.657Z,67.87
2023-08-18T18:32:48.627Z,68.04
2023-08-18T18:35:19.847Z,68.12
2023-08-18T18:37:47.927Z,68.23
2023-08-18T18:40:17.435Z,68.40
2023-08-18T18:42:46.092Z,68.60
2023-08-18T18:45:14.046Z,68.90
2023-08-18T18:47:42.700Z,69.13
2023-08-18T18:50:10.725Z,69.32
2023-08-18T18:52:38.721Z,69.33
2023-08-18T18:55:07.390Z,69.52
2023-08-18T18:57:36.037Z,69.54
2023-08-18T19:00:04.911Z,69.66
2023-08-18T19:02:35.464Z,69.73
2023-08-18T19:05:03.973Z,69.89
2023-08-18T19:07:32.485Z,69.79
2023-08-18T19:10:00.739Z,69.91
2023-08-18T19:12:28.821Z,70.06
2023-08-18T19:15:03.056Z,70.25
2023-08-18T19:17:31.971Z,70.33
2023-08-18T19:20:01.302Z,70.51
2023-08-18T19:22:33.678Z,70.66
2023-08-18T19:25:02.243Z,70.79
2023-08-18T19:27:30.576Z,70.93
2023-08-18T19:30:00.349Z,71.20
2023-08-18T19:32:29.100Z,71.36
2023-08-18T19:34:58.236Z,71.38
2023-08-18T19:37:26.370Z,71.35
2023-08-18T19:39:54.411Z,71.69
2023-08-18T19:42:23.314Z,71.55
2023-08-18T19:44:51.459Z,71.92
2023-08-18T19:47:19.449Z,72.07
2023-08-18T19:49:48.510Z,72.18
2023-08-18T19:52:16.901Z,72.30
2023-08-18T19:54:45.661Z,72.52
2023-08-18T19:57:13.813Z,72.48
2023-08-18T19:59:43.796Z,72.70
2023-08-18T20:02:11.869Z,72.72
2023-08-18T20:04:39.803Z,72.74
2023-08-18T20:07:08.261Z,72.86
2023-08-18T20:09:36.267Z,73.03
2023-08-18T20:12:04.676Z,73.05
2023-08-18T20:14:32.676Z,73.16
2023-08-18T20:17:01.413Z,73.45
2023-08-18T20:19:29.532Z,73.48
2023-08-18T20:21:57.776Z,73.53
2023-08-18T20:24:26.144Z,73.44
2023-08-18T20:26:54.599Z,73.69
2023-08-18T20:29:22.739Z,73.80
2023-08-18T20:31:50.802Z,73.77
2023-08-18T20:34:18.752Z,73.89
2023-08-18T20:36:46.777Z,73.90
2023-08-18T20:39:14.813Z,74.09
2023-08-18T20:41:43.181Z,74.16
2023-08-18T20:44:11.440Z,74.25
2023-08-18T20:46:41.118Z,74.29
2023-08-18T20:49:09.589Z,74.47
2023-08-18T20:51:40.946Z,74.77
2023-08-18T20:54:09.299Z,74.73
2023-08-18T20:56:37.265Z,74.91
2023-08-18T20:59:06.425Z,75.08
2023-08-18T21:01:34.554Z,75.09
2023-08-18T21:04:02.666Z,75.12
2023-08-18T21:06:30.770Z,75.25
2023-08-18T21:08:58.793Z,75.26
2023-08-18T21:11:26.861Z,75.50
2023-08-18T21:13:55.202Z,75.52
2023-08-18T21:16:23.308Z,75.68
2023-08-18T21:18:51.774Z,75.77
2023-08-18T21:21:20.096Z,75.91
2023-08-18T21:23:48.101Z,75.97
2023-08-18T21:26:18.184Z,75.98
2023-08-18T21:28:46.207Z,76.08
2023-08-18T21:31:14.594Z,76.20
2023-08-18T21:33:42.748Z,76.42
2023-08-18T21:36:10.836Z,76.55
2023-08-18T21:38:38.820Z,76.72
2023-08-18T21:41:06.766Z,76.87
2023-08-18T21:43:34.780Z,76.99
2023-08-18T21:46:02.833Z,77.01
2023-08-18T21:48:30.924Z,77.11
2023-08-18T21:50:59.395Z,77.28
2023-08-18T21:53:27.458Z,77.50
2023-08-18T21:56:02.113Z,77.73
2023-08-18T21:58:30.168Z,77.74
2023-08-18T22:00:58.241Z,77.66
2023-08-18T22:03:27.065Z,77.70
2023-08-18T22:05:55.367Z,77.95
2023-08-18T22:08:23.692Z,77.98
2023-08-18T22:10:51.627Z,78.12
2023-08-18T22:13:19.579Z,78.24
2023-08-18T22:15:47.543Z,78.46
2023-08-18T22:18:15.608Z,78.53
2023-08-18T22:20:45.126Z,78.54
2023-08-18T22:23:13.505Z,78.58
2023-08-18T22:25:41.453Z,78.66
2023-08-18T22:28:12.322Z,78.70
2023-08-18T22:30:41.758Z,78.80
2023-08-18T22:33:09.915Z,78.74
2023-08-18T22:35:38.015Z,78.95
2023-08-18T22:38:06.170Z,79.00
2023-08-18T22:40:34.481Z,79.01
2023-08-18T22:43:02.656Z,79.05
2023-08-18T22:45:30.600Z,79.07
2023-08-18T22:47:59.014Z,79.24
2023-08-18T22:50:28.091Z,79.41
2023-08-18T22:52:56.157Z,79.37
2023-08-18T22:55:24.230Z,79.44
2023-08-18T22:57:52.285Z,79.38
2023-08-18T23:00:20.277Z,79.44
2023-08-18T23:02:49.483Z,79.68
2023-08-18T23:05:17.939Z,79.78
2023-08-18T23:07:45.971Z,79.70
2023-08-18T23:10:14.903Z,79.86
2023-08-18T23:12:43.240Z,79.73
2023-08-18T23:15:11.463Z,79.79
2023-08-18T23:17:39.535Z,79.80
2023-08-18T23:20:09.903Z,79.95
2023-08-18T23:22:37.989Z,80.15
2023-08-18T23:25:08.349Z,80.13
2023-08-18T23:27:36.317Z,80.40
2023-08-18T23:30:05.332Z,80.46
2023-08-18T23:32:33.986Z,80.51
2023-08-18T23:35:02.456Z,80.68
2023-08-18T23:37:30.696Z,80.59
2023-08-18T23:39:58.862Z,80.77
2023-08-18T23:42:26.806Z,80.79
2023-08-18T23:44:54.832Z,80.96
2023-08-18T23:47:22.761Z,81.03
2023-08-18T23:49:50.690Z,81.07
2023-08-18T23:52:18.670Z,81.26
2023-08-18T23:54:47.009Z,81.05
2023-08-18T23:57:14.999Z,81.21
2023-08-18T23:59:43.038Z,81.43
